Time;durP1;ratioP1;P1;durP2;ratioP2;P2;SDS_P1;SDS_P2;PMS_P1;PMS_P2;Temp;Humidity;BMP_temperature;BMP_pressure;BME280_temperature;BME280_humidity;BME280_pressure;Samples;Min_cycle;Max_cycle;Signal;HPM_P1;HPM_P2
2023/07/01 00:02:02;;;;;;;13.27;2.58;;;;;;;;;;5059075;28;20052;-76
2023/07/01 00:04:28;;;;;;;12.40;2.42;;;;;;;;;;5057779;28;20041;-76
2023/07/01 00:06:55;;;;;;;8.50;2.42;;;;;;;;;;5058475;28;20499;-77
2023/07/01 00:09:21;;;;;;;12.38;2.67;;;;;;;;;;5056203;28;20040;-75
2023/07/01 00:11:48;;;;;;;9.95;2.80;;;;;;;;;;5058156;28;20076;-76
2023/07/01 00:14:14;;;;;;;7.40;2.28;;;;;;;;;;5057708;28;20036;-77
2023/07/01 00:16:40;;;;;;;11.63;2.50;;;;;;;;;;5058599;28;20049;-75
2023/07/01 00:19:07;;;;;;;11.15;2.72;;;;;;;;;;5062628;28;20562;-76
2023/07/01 00:21:36;;;;;;;9.10;2.47;;;;;;;;;;5063313;28;20051;-76
2023/07/01 00:24:02;;;;;;;13.38;3.00;;;;;;;;;;5059769;28;20056;-77
2023/07/01 00:26:28;;;;;;;8.98;2.58;;;;;;;;;;5062577;28;20049;-77
2023/07/01 00:28:54;;;;;;;8.90;2.55;;;;;;;;;;5063446;28;20419;-76
2023/07/01 00:31:20;;;;;;;12.93;2.90;;;;;;;;;;5058554;28;20135;-77
2023/07/01 00:33:46;;;;;;;14.18;2.78;;;;;;;;;;5062614;28;20049;-76
2023/07/01 00:36:12;;;;;;;7.13;2.17;;;;;;;;;;5062117;28;20064;-76
2023/07/01 00:38:38;;;;;;;9.85;2.25;;;;;;;;;;5065248;28;20040;-75
2023/07/01 00:41:05;;;;;;;10.95;2.70;;;;;;;;;;5063958;28;20067;-76
2023/07/01 00:43:31;;;;;;;11.02;2.65;;;;;;;;;;5060907;28;20078;-75
2023/07/01 00:45:57;;;;;;;13.77;2.70;;;;;;;;;;5061599;28;20041;-75
2023/07/01 00:48:25;;;;;;;8.50;2.58;;;;;;;;;;5058426;28;20136;-77
2023/07/01 00:50:51;;;;;;;8.85;2.70;;;;;;;;;;5057674;28;20041;-76
2023/07/01 00:53:18;;;;;;;10.63;2.83;;;;;;;;;;5060910;28;20120;-77
2023/07/01 00:55:44;;;;;;;8.60;2.40;;;;;;;;;;5059227;28;20033;-76
2023/07/01 00:58:10;;;;;;;6.40;2.08;;;;;;;;;;5059307;28;20058;-76
2023/07/01 01:00:37;;;;;;;11.35;2.50;;;;;;;;;;5023336;28;1079800;-76
2023/07/01 01:03:06;;;;;;;9.40;2.60;;;;;;;;;;5061068;28;20067;-76
2023/07/01 01:05:38;;;;;;;11.13;2.58;;;;;;;;;;5060693;28;20426;-76
2023/07/01 01:08:09;;;;;;;8.60;2.45;;;;;;;;;;5060965;28;20140;-75
2023/07/01 01:10:38;;;;;;;10.88;2.47;;;;;;;;;;5061249;28;20044;-76
2023/07/01 01:13:05;;;;;;;11.30;2.13;;;;;;;;;;5056703;28;20866;-75
2023/07/01 01:15:31;;;;;;;11.27;2.65;;;;;;;;;;5061009;28;20072;-76
2023/07/01 01:17:59;;;;;;;9.70;2.50;;;;;;;;;;5062060;28;20048;-76
2023/07/01 01:20:28;;;;;;;8.88;2.42;;;;;;;;;;5060884;28;20052;-76
2023/07/01 01:23:10;;;;;;;6.95;2.30;;;;;;;;;;5042125;28;20165;-76
2023/07/01 01:25:44;;;;;;;8.88;2.33;;;;;;;;;;5053217;28;20056;-75
2023/07/01 01:28:10;;;;;;;10.10;2.67;;;;;;;;;;5060466;28;20549;-75
2023/07/01 01:30:37;;;;;;;9.73;2.30;;;;;;;;;;5060681;28;20091;-76
2023/07/01 01:33:03;;;;;;;14.02;2.78;;;;;;;;;;5058981;28;20406;-76
2023/07/01 01:35:30;;;;;;;9.27;2.75;;;;;;;;;;5058738;28;20045;-75
2023/07/01 01:38:13;;;;;;;11.13;2.60;;;;;;;;;;5059580;28;20128;-76
2023/07/01 01:40:53;;;;;;;9.27;2.67;;;;;;;;;;5062276;28;20075;-76
2023/07/01 01:43:24;;;;;;;12.18;2.70;;;;;;;;;;5060935;28;20399;-76
2023/07/01 01:45:50;;;;;;;;;;;;;;;;;;5061253;28;20033;-76
2023/07/01 01:48:16;;;;;;;10.55;2.95;;;;;;;;;;5061288;28;19920;-76
2023/07/01 01:50:43;;;;;;;8.55;2.50;;;;;;;;;;5060302;28;20036;-76
2023/07/01 01:53:11;;;;;;;8.30;2.55;;;;;;;;;;5058531;28;20129;-77
2023/07/01 01:55:37;;;;;;;11.02;2.60;;;;;;;;;;5058146;28;20037;-76
2023/07/01 01:58:03;;;;;;;9.30;2.90;;;;;;;;;;5060213;28;20037;-76
2023/07/01 02:00:32;;;;;;;7.80;2.63;;;;;;;;;;5059992;28;20053;-76
2023/07/01 02:02:58;;;;;;;8.18;2.67;;;;;;;;;;5060533;28;20048;-76
2023/07/01 02:05:24;;;;;;;11.05;3.30;;;;;;;;;;5062529;28;20045;-76
2023/07/01 02:07:51;;;;;;;9.48;3.10;;;;;;;;;;5063498;28;20179;-76
2023/07/01 02:10:19;;;;;;;12.98;3.17;;;;;;;;;;5063604;28;20045;-75
2023/07/01 02:12:45;;;;;;;7.85;3.03;;;;;;;;;;5062442;28;20529;-76
2023/07/01 02:15:11;;;;;;;8.25;2.70;;;;;;;;;;5062028;28;20053;-76
2023/07/01 02:17:37;;;;;;;10.50;3.42;;;;;;;;;;5047787;28;20033;-76
2023/07/01 02:20:04;;;;;;;9.80;2.90;;;;;;;;;;5064011;28;20041;-78
2023/07/01 02:22:30;;;;;;;11.77;3.28;;;;;;;;;;5044504;28;20033;-75
2023/07/01 02:24:56;;;;;;;8.40;2.70;;;;;;;;;;5057728;28;20056;-76
2023/07/01 02:27:22;;;;;;;9.57;2.92;;;;;;;;;;5060665;28;20080;-75
2023/07/01 02:29:49;;;;;;;9.65;2.92;;;;;;;;;;5058283;28;20041;-74
2023/07/01 02:32:15;;;;;;;9.43;2.95;;;;;;;;;;5063938;28;20041;-76
2023/07/01 02:34:41;;;;;;;9.20;2.90;;;;;;;;;;5057674;28;20045;-75
2023/07/01 02:37:07;;;;;;;10.57;3.30;;;;;;;;;;5057776;28;20048;-75
2023/07/01 02:39:33;;;;;;;10.02;2.83;;;;;;;;;;5056396;28;20125;-75
2023/07/01 02:41:59;;;;;;;11.85;3.38;;;;;;;;;;5056902;28;20073;-76
2023/07/01 02:44:25;;;;;;;11.68;3.05;;;;;;;;;;5057263;28;20049;-76
2023/07/01 02:46:52;;;;;;;11.85;3.08;;;;;;;;;;5056191;28;20057;-75
2023/07/01 02:49:20;;;;;;;8.98;3.00;;;;;;;;;;5057875;28;20088;-75
2023/07/01 02:51:46;;;;;;;6.60;3.10;;;;;;;;;;5057840;28;20041;-76
2023/07/01 02:54:12;;;;;;;7.25;3.38;;;;;;;;;;5056923;28;20068;-75
2023/07/01 02:56:38;;;;;;;9.10;3.15;;;;;;;;;;5049197;28;20135;-76
2023/07/01 02:59:04;;;;;;;8.95;3.13;;;;;;;;;;5059152;28;20048;-75
2023/07/01 03:01:31;;;;;;;9.73;3.30;;;;;;;;;;5060615;28;20087;-75
2023/07/01 03:03:57;;;;;;;9.73;3.17;;;;;;;;;;5057421;28;20099;-76
2023/07/01 03:06:23;;;;;;;8.50;3.13;;;;;;;;;;5057308;28;20037;-76
2023/07/01 03:08:49;;;;;;;9.70;3.05;;;;;;;;;;5056103;28;20068;-76
2023/07/01 03:11:15;;;;;;;9.15;3.20;;;;;;;;;;5059980;28;20048;-76
2023/07/01 03:13:42;;;;;;;9.85;3.10;;;;;;;;;;5056797;28;20033;-76
2023/07/01 03:16:10;;;;;;;10.32;3.20;;;;;;;;;;5056501;28;20119;-76
2023/07/01 03:18:37;;;;;;;8.63;2.78;;;;;;;;;;5049042;28;20106;-76
2023/07/01 03:21:04;;;;;;;9.10;3.15;;;;;;;;;;5053554;28;20114;-75
2023/07/01 03:23:30;;;;;;;9.05;3.20;;;;;;;;;;5058019;28;20566;-76
2023/07/01 03:25:57;;;;;;;7.53;2.70;;;;;;;;;;5055164;28;20041;-75
2023/07/01 03:28:23;;;;;;;7.72;2.92;;;;;;;;;;5058353;28;20056;-75
2023/07/01 03:30:49;;;;;;;8.77;3.15;;;;;;;;;;5058819;28;20051;-76
2023/07/01 03:33:17;;;;;;;7.78;3.10;;;;;;;;;;5058796;28;20460;-76
2023/07/01 03:35:44;;;;;;;8.05;2.88;;;;;;;;;;5058289;28;20067;-75
2023/07/01 03:38:10;;;;;;;8.18;2.70;;;;;;;;;;5056810;28;20352;-75
2023/07/01 03:40:36;;;;;;;7.72;2.90;;;;;;;;;;5059889;28;20081;-76
2023/07/01 03:43:02;;;;;;;7.05;2.60;;;;;;;;;;5058851;28;20348;-76
2023/07/01 03:45:28;;;;;;;9.98;3.20;;;;;;;;;;5058106;28;20099;-75
2023/07/01 03:47:55;;;;;;;8.27;3.03;;;;;;;;;;5057032;28;20196;-75
2023/07/01 03:50:21;;;;;;;11.70;4.00;;;;;;;;;;5060076;28;20052;-77
2023/07/01 03:52:47;;;;;;;9.07;3.60;;;;;;;;;;5057447;28;20456;-76
2023/07/01 03:55:14;;;;;;;7.85;3.35;;;;;;;;;;5055771;28;20045;-74
2023/07/01 03:57:40;;;;;;;9.40;3.40;;;;;;;;;;5060173;28;20048;-76
2023/07/01 04:00:08;;;;;;;9.27;3.95;;;;;;;;;;5061131;28;20052;-75
2023/07/01 04:02:37;;;;;;;8.15;3.58;;;;;;;;;;5058983;28;20384;-75
2023/07/01 04:05:09;;;;;;;8.75;3.30;;;;;;;;;;5045004;28;20405;-75
2023/07/01 04:07:36;;;;;;;8.63;3.47;;;;;;;;;;5056091;28;20049;-75
2023/07/01 04:10:05;;;;;;;10.75;3.50;;;;;;;;;;5056487;28;20063;-75
2023/07/01 04:12:32;;;;;;;11.05;3.67;;;;;;;;;;5059021;28;20487;-75
2023/07/01 04:14:59;;;;;;;10.32;3.78;;;;;;;;;;5061422;28;20136;-75
2023/07/01 04:17:25;;;;;;;12.70;4.18;;;;;;;;;;5057334;28;20045;-75
2023/07/01 04:19:51;;;;;;;8.27;3.70;;;;;;;;;;5059814;28;20120;-75
2023/07/01 04:22:17;;;;;;;9.73;3.65;;;;;;;;;;5058497;28;20094;-75
2023/07/01 04:24:43;;;;;;;8.45;3.47;;;;;;;;;;5059033;28;20040;-75
2023/07/01 04:27:09;;;;;;;13.57;3.78;;;;;;;;;;5057253;28;20037;-75
2023/07/01 04:29:35;;;;;;;7.25;3.38;;;;;;;;;;5058109;28;20076;-75
2023/07/01 04:32:01;;;;;;;8.57;3.78;;;;;;;;;;5055694;28;20368;-77
2023/07/01 04:34:27;;;;;;;10.43;3.83;;;;;;;;;;5058580;28;20049;-76
2023/07/01 04:36:54;;;;;;;8.98;3.70;;;;;;;;;;5059714;28;20074;-76
2023/07/01 04:39:23;;;;;;;10.80;3.67;;;;;;;;;;5061893;28;20139;-76
2023/07/01 04:41:49;;;;;;;12.30;3.83;;;;;;;;;;5060848;28;20140;-75
2023/07/01 04:44:16;;;;;;;8.70;3.55;;;;;;;;;;5059851;28;20048;-75
2023/07/01 04:46:42;;;;;;;7.90;3.45;;;;;;;;;;5042920;28;20053;-75
2023/07/01 04:49:09;;;;;;;8.50;3.30;;;;;;;;;;5039757;28;20041;-75
2023/07/01 04:51:35;;;;;;;8.10;3.70;;;;;;;;;;5052759;28;20101;-75
2023/07/01 04:54:02;;;;;;;8.98;3.58;;;;;;;;;;5059860;28;20090;-75
2023/07/01 04:56:29;;;;;;;9.50;4.13;;;;;;;;;;5039926;28;20045;-74
2023/07/01 04:58:55;;;;;;;10.30;3.80;;;;;;;;;;5051205;28;20114;-75
2023/07/01 05:01:21;;;;;;;11.38;3.95;;;;;;;;;;5053737;28;20079;-74
2023/07/01 05:03:47;;;;;;;7.90;3.92;;;;;;;;;;5051267;28;20052;-74
2023/07/01 05:06:13;;;;;;;10.75;3.70;;;;;;;;;;5054742;28;20495;-74
2023/07/01 05:08:39;;;;;;;10.48;3.95;;;;;;;;;;5053382;28;20518;-75
2023/07/01 05:11:05;;;;;;;8.23;4.13;;;;;;;;;;5056477;28;20051;-75
2023/07/01 05:13:31;;;;;;;9.45;3.78;;;;;;;;;;5058597;28;20056;-75
2023/07/01 05:15:57;;;;;;;6.60;3.60;;;;;;;;;;5055108;28;20047;-74
2023/07/01 05:18:24;;;;;;;8.50;3.80;;;;;;;;;;5046782;28;20067;-74
2023/07/01 05:20:50;;;;;;;9.57;4.30;;;;;;;;;;5058377;28;20179;-75
2023/07/01 05:23:16;;;;;;;9.35;3.83;;;;;;;;;;5048001;28;20084;-75
2023/07/01 05:25:42;;;;;;;9.05;3.55;;;;;;;;;;5050952;28;20045;-75
2023/07/01 05:28:08;;;;;;;8.43;3.70;;;;;;;;;;5056986;28;20096;-74
2023/07/01 05:30:34;;;;;;;6.85;3.63;;;;;;;;;;5049846;28;20037;-76
2023/07/01 05:33:00;;;;;;;8.65;3.47;;;;;;;;;;5055481;28;20056;-74
2023/07/01 05:35:26;;;;;;;7.80;4.13;;;;;;;;;;5054348;28;20049;-75
2023/07/01 05:37:54;;;;;;;8.23;3.90;;;;;;;;;;5056289;28;20105;-75
2023/07/01 05:40:20;;;;;;;7.68;4.10;;;;;;;;;;5053961;28;20036;-75
2023/07/01 05:42:46;;;;;;;8.77;4.03;;;;;;;;;;5054583;28;20045;-75
2023/07/01 05:45:13;;;;;;;8.50;3.50;;;;;;;;;;5046189;28;20049;-75
2023/07/01 05:47:39;;;;;;;7.38;3.70;;;;;;;;;;5058068;28;20049;-75
2023/07/01 05:50:05;;;;;;;8.63;4.18;;;;;;;;;;5058673;28;20621;-74
2023/07/01 05:52:31;;;;;;;8.60;3.35;;;;;;;;;;5058013;28;20090;-74
2023/07/01 05:54:57;;;;;;;8.48;4.25;;;;;;;;;;5055801;28;20049;-75
2023/07/01 05:57:24;;;;;;;6.97;3.67;;;;;;;;;;5057564;28;20120;-76
2023/07/01 05:59:50;;;;;;;6.88;3.45;;;;;;;;;;5053526;28;20054;-76
2023/07/01 06:02:16;;;;;;;6.70;3.15;;;;;;;;;;5047264;28;20040;-75
2023/07/01 06:04:42;;;;;;;7.53;3.83;;;;;;;;;;5054157;28;20095;-74
2023/07/01 06:07:08;;;;;;;7.50;3.63;;;;;;;;;;5037854;28;20048;-74
2023/07/01 06:09:34;;;;;;;12.30;3.92;;;;;;;;;;5046163;28;20037;-75
2023/07/01 06:12:00;;;;;;;8.00;3.30;;;;;;;;;;5046769;28;20371;-75
2023/07/01 06:14:26;;;;;;;7.50;3.20;;;;;;;;;;5055165;28;20399;-74
2023/07/01 06:16:52;;;;;;;6.63;3.50;;;;;;;;;;5056359;28;20044;-75
2023/07/01 06:19:18;;;;;;;8.18;3.60;;;;;;;;;;5057133;28;20056;-75
2023/07/01 06:21:46;;;;;;;12.10;3.78;;;;;;;;;;5051843;28;20052;-75
2023/07/01 06:24:12;;;;;;;9.85;3.53;;;;;;;;;;5049439;28;20049;-74
2023/07/01 06:26:41;;;;;;;10.15;3.80;;;;;;;;;;5059189;28;20407;-75
2023/07/01 06:29:07;;;;;;;9.52;3.60;;;;;;;;;;5056305;28;20507;-75
2023/07/01 06:31:33;;;;;;;8.30;3.72;;;;;;;;;;5052781;28;20092;-75
2023/07/01 06:33:59;;;;;;;5.95;3.55;;;;;;;;;;5057862;28;20060;-75
2023/07/01 06:36:26;;;;;;;8.68;3.83;;;;;;;;;;5057833;28;20048;-75
2023/07/01 06:38:52;;;;;;;7.47;4.20;;;;;;;;;;5066563;28;20554;-74
2023/07/01 06:41:18;;;;;;;8.30;4.07;;;;;;;;;;5067830;28;20037;-74
2023/07/01 06:43:44;;;;;;;8.13;4.32;;;;;;;;;;5061623;28;20055;-75
2023/07/01 06:46:10;;;;;;;10.52;3.95;;;;;;;;;;5058249;28;20041;-74
2023/07/01 06:48:36;;;;;;;8.50;4.30;;;;;;;;;;5057988;28;21168;-75
2023/07/01 06:51:03;;;;;;;7.35;4.20;;;;;;;;;;5039994;28;20052;-75
2023/07/01 06:53:29;;;;;;;9.40;4.78;;;;;;;;;;5055404;28;20037;-75
2023/07/01 06:55:55;;;;;;;9.07;5.20;;;;;;;;;;5053536;28;20048;-75
2023/07/01 06:58:22;;;;;;;8.60;4.70;;;;;;;;;;5056255;28;20041;-75
2023/07/01 07:00:48;;;;;;;8.35;4.88;;;;;;;;;;5053898;28;20037;-74
2023/07/01 07:03:14;;;;;;;8.25;4.68;;;;;;;;;;5053953;28;20506;-74
2023/07/01 07:05:40;;;;;;;7.65;4.57;;;;;;;;;;5055560;28;20048;-74
2023/07/01 07:08:06;;;;;;;8.32;4.93;;;;;;;;;;5056192;28;20048;-74
2023/07/01 07:10:32;;;;;;;7.60;4.55;;;;;;;;;;5055650;28;20479;-74
2023/07/01 07:12:58;;;;;;;8.65;4.72;;;;;;;;;;5051556;28;20072;-74
2023/07/01 07:15:24;;;;;;;7.45;4.70;;;;;;;;;;5055838;28;20075;-75
2023/07/01 07:17:50;;;;;;;8.65;5.00;;;;;;;;;;5056462;28;20067;-75
2023/07/01 07:20:17;;;;;;;7.82;5.18;;;;;;;;;;5049634;28;20453;-75
2023/07/01 07:22:43;;;;;;;9.57;5.00;;;;;;;;;;5055260;28;20041;-75
2023/07/01 07:25:16;;;;;;;9.05;4.78;;;;;;;;;;5053446;28;20053;-75
2023/07/01 07:27:43;;;;;;;7.20;4.80;;;;;;;;;;5054724;28;20048;-75
2023/07/01 07:30:10;;;;;;;7.03;4.28;;;;;;;;;;5052350;28;20067;-75
2023/07/01 07:32:36;;;;;;;8.15;5.13;;;;;;;;;;5053858;28;20054;-76
2023/07/01 07:35:02;;;;;;;8.23;4.72;;;;;;;;;;5055257;28;20040;-75
2023/07/01 07:37:28;;;;;;;7.72;5.40;;;;;;;;;;5056137;28;20041;-75
2023/07/01 07:39:55;;;;;;;8.02;5.03;;;;;;;;;;5053316;28;20060;-75
2023/07/01 07:42:22;;;;;;;7.75;5.10;;;;;;;;;;5058877;28;20049;-75
2023/07/01 07:44:48;;;;;;;7.47;5.13;;;;;;;;;;5056430;28;20090;-75
2023/07/01 07:47:14;;;;;;;8.63;5.57;;;;;;;;;;5055226;28;20123;-75
2023/07/01 07:49:40;;;;;;;7.13;4.40;;;;;;;;;;5057801;28;20125;-76
2023/07/01 07:52:07;;;;;;;8.73;5.18;;;;;;;;;;5056741;28;20045;-75
2023/07/01 07:54:33;;;;;;;7.88;4.63;;;;;;;;;;5052135;28;20044;-75
2023/07/01 07:56:59;;;;;;;8.57;5.18;;;;;;;;;;5039917;28;20037;-75
2023/07/01 07:59:27;;;;;;;7.03;4.95;;;;;;;;;;5042114;28;20057;-74
2023/07/01 08:01:54;;;;;;;7.43;4.72;;;;;;;;;;5052813;28;20496;-74
2023/07/01 08:04:20;;;;;;;7.75;4.95;;;;;;;;;;5051900;28;20128;-74
2023/07/01 08:06:46;;;;;;;6.65;4.57;;;;;;;;;;5053931;28;20132;-74
2023/07/01 08:09:12;;;;;;;7.45;4.90;;;;;;;;;;5052689;28;20517;-74
2023/07/01 08:11:39;;;;;;;6.43;4.82;;;;;;;;;;5053999;28;20045;-75
2023/07/01 08:14:05;;;;;;;8.38;5.43;;;;;;;;;;5055247;28;20041;-75
2023/07/01 08:16:32;;;;;;;7.30;4.45;;;;;;;;;;5051857;28;20052;-74
2023/07/01 08:18:58;;;;;;;6.95;4.50;;;;;;;;;;5055718;28;20080;-76
2023/07/01 08:21:24;;;;;;;7.63;4.55;;;;;;;;;;5053078;28;20037;-74
2023/07/01 08:23:50;;;;;;;6.95;4.63;;;;;;;;;;5046310;28;20045;-75
2023/07/01 08:26:16;;;;;;;7.07;5.07;;;;;;;;;;5047391;28;20053;-75
2023/07/01 08:28:42;;;;;;;6.82;5.30;;;;;;;;;;5048609;28;20044;-74
2023/07/01 08:31:08;;;;;;;7.63;5.00;;;;;;;;;;5050600;28;20564;-74
2023/07/01 08:33:34;;;;;;;8.32;4.82;;;;;;;;;;5043928;28;20372;-74
2023/07/01 08:36:01;;;;;;;7.72;4.88;;;;;;;;;;5053587;28;20171;-74
2023/07/01 08:38:28;;;;;;;7.00;4.65;;;;;;;;;;5052994;28;20381;-73
2023/07/01 08:40:56;;;;;;;10.38;4.65;;;;;;;;;;5058060;28;20127;-75
2023/07/01 08:43:25;;;;;;;9.07;5.13;;;;;;;;;;5056812;28;20044;-75
2023/07/01 08:45:52;;;;;;;8.27;5.57;;;;;;;;;;5052433;28;20106;-74
2023/07/01 08:48:22;;;;;;;6.78;5.13;;;;;;;;;;5041000;28;20064;-74
2023/07/01 08:50:52;;;;;;;8.30;5.30;;;;;;;;;;5054200;28;20059;-74
2023/07/01 08:53:19;;;;;;;6.28;4.38;;;;;;;;;;5055254;28;20044;-74
2023/07/01 08:55:46;;;;;;;8.52;5.18;;;;;;;;;;5058916;28;20453;-74
2023/07/01 08:58:13;;;;;;;7.65;5.10;;;;;;;;;;5058155;28;20044;-74
2023/07/01 09:00:39;;;;;;;8.63;5.13;;;;;;;;;;5057493;28;20080;-74
2023/07/01 09:03:06;;;;;;;7.97;4.72;;;;;;;;;;5058267;28;20507;-75
2023/07/01 09:05:33;;;;;;;5.72;4.35;;;;;;;;;;5061442;28;20124;-74
2023/07/01 09:07:59;;;;;;;7.60;5.07;;;;;;;;;;5065534;28;20547;-74
2023/07/01 09:10:25;;;;;;;6.45;4.57;;;;;;;;;;5056497;28;20045;-74
2023/07/01 09:12:51;;;;;;;6.40;4.57;;;;;;;;;;5053058;28;20754;-74
2023/07/01 09:15:17;;;;;;;6.30;4.90;;;;;;;;;;5054396;28;20170;-74
2023/07/01 09:17:44;;;;;;;6.85;4.68;;;;;;;;;;5059557;28;20206;-74
2023/07/01 09:20:11;;;;;;;7.05;4.63;;;;;;;;;;5060396;28;20045;-74
2023/07/01 09:22:39;;;;;;;7.07;4.78;;;;;;;;;;5059707;28;20044;-75
2023/07/01 09:25:05;;;;;;;6.47;5.13;;;;;;;;;;5056943;28;20126;-74
2023/07/01 09:27:41;;;;;;;5.55;4.43;;;;;;;;;;5041473;28;20132;-74
2023/07/01 09:30:24;;;;;;;7.28;4.88;;;;;;;;;;5057315;28;20045;-74
2023/07/01 09:32:51;;;;;;;8.70;5.30;;;;;;;;;;5052491;28;20057;-75
2023/07/01 09:35:17;;;;;;;7.82;4.93;;;;;;;;;;5059807;28;20097;-75
2023/07/01 09:37:43;;;;;;;7.38;4.95;;;;;;;;;;5056665;28;20040;-74
2023/07/01 09:40:18;;;;;;;7.88;5.03;;;;;;;;;;5057721;28;20098;-73
2023/07/01 09:42:54;;;;;;;6.97;5.30;;;;;;;;;;5060166;28;20053;-74
2023/07/01 09:45:20;;;;;;;7.47;4.47;;;;;;;;;;5038468;28;20115;-74
2023/07/01 09:47:52;;;;;;;6.57;4.95;;;;;;;;;;5039838;28;20075;-74
2023/07/01 09:50:29;;;;;;;6.57;4.90;;;;;;;;;;5057132;28;20123;-75
2023/07/01 09:52:56;;;;;;;7.80;5.18;;;;;;;;;;5056093;28;20045;-74
2023/07/01 09:55:22;;;;;;;6.63;5.20;;;;;;;;;;5055244;28;20052;-75
2023/07/01 09:57:48;;;;;;;7.40;4.53;;;;;;;;;;5056711;28;20037;-75
2023/07/01 10:00:17;;;;;;;7.20;4.45;;;;;;;;;;5060489;28;20056;-74
2023/07/01 10:02:44;;;;;;;6.13;4.20;;;;;;;;;;5060342;28;20048;-75
2023/07/01 10:05:12;;;;;;;6.43;4.32;;;;;;;;;;5060618;28;20045;-74
2023/07/01 10:07:38;;;;;;;5.80;4.25;;;;;;;;;;5056061;28;20513;-73
2023/07/01 10:10:04;;;;;;;5.63;3.75;;;;;;;;;;5049849;28;20041;-74
2023/07/01 10:12:31;;;;;;;5.75;4.15;;;;;;;;;;5047212;28;20075;-73
2023/07/01 10:14:59;;;;;;;5.55;3.78;;;;;;;;;;5056363;28;20044;-73
2023/07/01 10:17:43;;;;;;;5.90;4.07;;;;;;;;;;5067931;28;20044;-73
2023/07/01 10:20:28;;;;;;;5.85;4.35;;;;;;;;;;5055710;28;20457;-74
2023/07/01 10:22:58;;;;;;;6.57;4.40;;;;;;;;;;5050667;28;20049;-75
2023/07/01 10:25:31;;;;;;;6.35;4.70;;;;;;;;;;5048221;28;20037;-74
2023/07/01 10:28:13;;;;;;;6.15;4.47;;;;;;;;;;5058809;28;20146;-74
2023/07/01 10:30:45;;;;;;;6.15;4.70;;;;;;;;;;5054696;28;20040;-74
2023/07/01 10:33:39;;;;;;;6.53;4.65;;;;;;;;;;5046396;28;20041;-73
2023/07/01 10:36:13;;;;;;;6.70;4.70;;;;;;;;;;5055290;28;20057;-73
2023/07/01 10:38:39;;;;;;;7.40;4.47;;;;;;;;;;5054635;28;20067;-74
2023/07/01 10:41:06;;;;;;;7.45;4.70;;;;;;;;;;5056638;28;20538;-74
2023/07/01 10:43:39;;;;;;;6.65;4.78;;;;;;;;;;5056971;28;20047;-74
2023/07/01 10:46:07;;;;;;;7.78;4.75;;;;;;;;;;5052517;28;20063;-74
2023/07/01 10:48:33;;;;;;;6.43;5.03;;;;;;;;;;5054345;28;20124;-75
2023/07/01 10:51:03;;;;;;;7.70;5.30;;;;;;;;;;5055395;28;20072;-74
2023/07/01 10:53:30;;;;;;;7.22;4.93;;;;;;;;;;5049855;28;20037;-74
2023/07/01 10:56:12;;;;;;;6.25;4.78;;;;;;;;;;5036780;28;20446;-74
2023/07/01 10:58:38;;;;;;;6.13;4.50;;;;;;;;;;5053938;28;20056;-74
2023/07/01 11:01:05;;;;;;;7.85;4.78;;;;;;;;;;5055300;28;20099;-74
2023/07/01 11:03:34;;;;;;;7.75;4.68;;;;;;;;;;5054614;28;20145;-74
2023/07/01 11:06:04;;;;;;;7.05;4.95;;;;;;;;;;5054883;28;20051;-74
2023/07/01 11:08:31;;;;;;;6.82;4.90;;;;;;;;;;5052535;28;20044;-74
2023/07/01 11:10:57;;;;;;;6.55;4.38;;;;;;;;;;5049033;28;20402;-74
2023/07/01 11:13:24;;;;;;;7.35;4.63;;;;;;;;;;5047752;28;20440;-74
2023/07/01 11:16:10;;;;;;;5.88;4.68;;;;;;;;;;5058998;28;20414;-74
2023/07/01 11:18:42;;;;;;;6.95;4.63;;;;;;;;;;5058772;28;20049;-74
2023/07/01 11:21:10;;;;;;;7.15;5.00;;;;;;;;;;5067491;28;20070;-74
2023/07/01 11:23:36;;;;;;;8.07;5.15;;;;;;;;;;5058097;28;20048;-74
2023/07/01 11:26:02;;;;;;;6.70;5.18;;;;;;;;;;5063726;28;20106;-74
2023/07/01 11:28:35;;;;;;;5.90;4.30;;;;;;;;;;5057947;28;20048;-75
2023/07/01 11:31:14;;;;;;;7.45;5.45;;;;;;;;;;5059952;28;20062;-74
2023/07/01 11:33:44;;;;;;;8.80;5.25;;;;;;;;;;5060120;28;20055;-74
2023/07/01 11:36:10;;;;;;;6.50;4.40;;;;;;;;;;5061245;28;20045;-75
2023/07/01 11:38:37;;;;;;;9.02;5.07;;;;;;;;;;5063695;28;20053;-74
2023/07/01 11:41:03;;;;;;;7.43;4.93;;;;;;;;;;5068724;28;20040;-75
2023/07/01 11:43:30;;;;;;;8.32;4.30;;;;;;;;;;5063202;28;20076;-74
2023/07/01 11:45:56;;;;;;;5.78;4.60;;;;;;;;;;5060151;28;20074;-73
2023/07/01 11:48:29;;;;;;;5.95;3.88;;;;;;;;;;5063283;28;20049;-74
2023/07/01 11:50:55;;;;;;;7.43;3.83;;;;;;;;;;5060312;28;20502;-74
2023/07/01 11:53:21;;;;;;;6.65;4.45;;;;;;;;;;5057509;28;20052;-74
2023/07/01 11:55:47;;;;;;;5.68;4.35;;;;;;;;;;5061633;28;20040;-74
2023/07/01 11:58:26;;;;;;;5.15;3.65;;;;;;;;;;5064839;28;20055;-75
2023/07/01 12:00:52;;;;;;;6.10;4.30;;;;;;;;;;5056666;28;20060;-74
2023/07/01 12:03:18;;;;;;;4.82;3.35;;;;;;;;;;5066060;28;20048;-74
2023/07/01 12:05:45;;;;;;;5.85;3.78;;;;;;;;;;5058479;28;20045;-74
2023/07/01 12:08:11;;;;;;;6.32;3.83;;;;;;;;;;5055386;28;20053;-74
2023/07/01 12:10:38;;;;;;;6.85;3.97;;;;;;;;;;5057800;28;20063;-73
2023/07/01 12:13:05;;;;;;;5.70;4.10;;;;;;;;;;5055027;28;20071;-73
2023/07/01 12:15:33;;;;;;;8.43;4.55;;;;;;;;;;5066973;28;20060;-74
2023/07/01 12:18:18;;;;;;;6.03;4.57;;;;;;;;;;5061070;28;20048;-74
2023/07/01 12:20:44;;;;;;;5.82;4.43;;;;;;;;;;5063263;28;20071;-74
2023/07/01 12:23:10;;;;;;;5.60;4.38;;;;;;;;;;5059861;28;20041;-74
2023/07/01 12:25:36;;;;;;;6.65;4.88;;;;;;;;;;5066810;28;20045;-75
2023/07/01 12:28:04;;;;;;;6.88;4.70;;;;;;;;;;5068644;28;20548;-74
2023/07/01 12:30:30;;;;;;;6.15;4.35;;;;;;;;;;5071188;28;20513;-73
2023/07/01 12:32:56;;;;;;;6.30;4.43;;;;;;;;;;5064600;28;20098;-73
2023/07/01 12:35:22;;;;;;;6.45;4.03;;;;;;;;;;5057540;28;20052;-74
2023/07/01 12:37:49;;;;;;;6.10;3.10;;;;;;;;;;5066455;28;20417;-74
2023/07/01 12:40:15;;;;;;;5.43;3.08;;;;;;;;;;5066382;28;20071;-74
2023/07/01 12:42:42;;;;;;;5.18;2.42;;;;;;;;;;5062632;28;20037;-75
2023/07/01 12:45:08;;;;;;;4.50;2.70;;;;;;;;;;5064151;28;20738;-74
2023/07/01 12:47:34;;;;;;;4.85;2.90;;;;;;;;;;5061112;28;20082;-74
2023/07/01 12:50:00;;;;;;;5.05;2.70;;;;;;;;;;5061649;28;20519;-73
2023/07/01 12:52:26;;;;;;;4.50;2.70;;;;;;;;;;5064730;28;20056;-74
2023/07/01 12:54:52;;;;;;;4.97;2.75;;;;;;;;;;5062002;28;20071;-74
2023/07/01 12:57:20;;;;;;;4.68;2.90;;;;;;;;;;5060469;28;20053;-74
2023/07/01 12:59:54;;;;;;;4.80;2.90;;;;;;;;;;5062320;28;20045;-74
2023/07/01 13:02:20;;;;;;;4.47;2.90;;;;;;;;;;5061107;28;20033;-74
2023/07/01 13:04:52;;;;;;;6.00;3.10;;;;;;;;;;5053443;28;20049;-74
2023/07/01 13:07:18;;;;;;;6.53;3.40;;;;;;;;;;5055121;28;20357;-73
2023/07/01 13:09:49;;;;;;;8.32;3.90;;;;;;;;;;5056006;28;20399;-74
2023/07/01 13:12:18;;;;;;;6.97;3.70;;;;;;;;;;5057654;28;20614;-74
2023/07/01 13:14:44;;;;;;;6.47;3.67;;;;;;;;;;5065253;28;20064;-74
2023/07/01 13:17:10;;;;;;;5.45;3.30;;;;;;;;;;5064477;28;20049;-74
2023/07/01 13:19:36;;;;;;;5.20;2.97;;;;;;;;;;5062871;28;20518;-74
2023/07/01 13:22:02;;;;;;;5.80;3.25;;;;;;;;;;5059917;28;20124;-75
2023/07/01 13:24:30;;;;;;;5.38;3.25;;;;;;;;;;5057769;28;20041;-74
2023/07/01 13:26:58;;;;;;;6.97;4.10;;;;;;;;;;5056868;28;20053;-75
2023/07/01 13:29:25;;;;;;;6.72;4.20;;;;;;;;;;5059544;28;20058;-75
2023/07/01 13:31:51;;;;;;;8.93;4.40;;;;;;;;;;5058287;28;20055;-74
2023/07/01 13:34:18;;;;;;;6.60;4.10;;;;;;;;;;5060482;28;20060;-75
2023/07/01 13:36:50;;;;;;;6.97;4.43;;;;;;;;;;5074349;28;20044;-75
2023/07/01 13:39:17;;;;;;;7.70;5.15;;;;;;;;;;5079808;28;20177;-75
2023/07/01 13:41:43;;;;;;;6.65;4.93;;;;;;;;;;5065800;28;20045;-74
2023/07/01 13:44:20;;;;;;;6.85;5.43;;;;;;;;;;5054080;28;20514;-74
2023/07/01 13:46:46;;;;;;;8.07;5.50;;;;;;;;;;5071256;28;20045;-75
2023/07/01 13:49:16;;;;;;;8.38;5.80;;;;;;;;;;5057543;28;20045;-75
2023/07/01 13:51:42;;;;;;;8.82;5.28;;;;;;;;;;5056225;28;20049;-75
2023/07/01 13:54:10;;;;;;;7.88;5.65;;;;;;;;;;5057072;28;20056;-74
2023/07/01 13:56:37;;;;;;;7.32;4.80;;;;;;;;;;5054534;28;20096;-75
2023/07/01 13:59:03;;;;;;;6.70;4.85;;;;;;;;;;5061919;28;20458;-74
2023/07/01 14:01:29;;;;;;;6.35;4.38;;;;;;;;;;5062862;28;20041;-74
2023/07/01 14:04:00;;;;;;;7.03;4.28;;;;;;;;;;5069337;28;20080;-75
2023/07/01 14:06:28;;;;;;;7.38;3.90;;;;;;;;;;5067734;28;20894;-75
2023/07/01 14:08:54;;;;;;;6.68;3.50;;;;;;;;;;5068526;28;20467;-74
2023/07/01 14:11:23;;;;;;;6.25;3.00;;;;;;;;;;5065184;28;20040;-74
2023/07/01 14:13:50;;;;;;;7.05;3.58;;;;;;;;;;5064071;28;20041;-74
2023/07/01 14:16:18;;;;;;;5.38;3.67;;;;;;;;;;5062952;28;20049;-74
2023/07/01 14:18:45;;;;;;;7.72;3.78;;;;;;;;;;5061199;28;20033;-75
2023/07/01 14:21:12;;;;;;;5.75;4.10;;;;;;;;;;5064350;28;20146;-75
2023/07/01 14:23:39;;;;;;;6.50;4.25;;;;;;;;;;5060124;28;20048;-74
2023/07/01 14:26:18;;;;;;;7.22;4.60;;;;;;;;;;5063532;28;20124;-75
2023/07/01 14:28:47;;;;;;;6.32;4.50;;;;;;;;;;5062867;28;20093;-75
2023/07/01 14:31:20;;;;;;;5.28;3.60;;;;;;;;;;5062263;28;20073;-75
2023/07/01 14:33:49;;;;;;;6.50;4.00;;;;;;;;;;5063636;28;20125;-74
2023/07/01 14:36:15;;;;;;;10.05;3.72;;;;;;;;;;5066892;28;20067;-74
2023/07/01 14:38:43;;;;;;;9.45;3.42;;;;;;;;;;5065740;28;20044;-74
2023/07/01 14:41:13;;;;;;;9.55;3.83;;;;;;;;;;5055269;28;20047;-74
2023/07/01 14:43:40;;;;;;;7.05;3.40;;;;;;;;;;5064622;28;20040;-75